Time;durP1;ratioP1;P1;durP2;ratioP2;P2;SDS_P1;SDS_P2;PMS_P1;PMS_P2;Temp;Humidity;BMP_temperature;BMP_pressure;BME280_temperature;BME280_humidity;BME280_pressure;Samples;Min_cycle;Max_cycle;Signal;HPM_P1;HPM_P2
2023/11/02 00:01:32;;;;;;;16.52;7.40;;;;;;;;;;5068772;28;20043;-62
2023/11/02 00:03:59;;;;;;;12.95;7.38;;;;;;;;;;5063018;28;20029;-65
2023/11/02 00:06:31;;;;;;;14.30;8.00;;;;;;;;;;5056188;28;20024;-63
2023/11/02 00:09:15;;;;;;;14.77;7.63;;;;;;;;;;5085323;28;20028;-64
2023/11/02 00:11:44;;;;;;;13.10;7.50;;;;;;;;;;5082279;28;20550;-64
2023/11/02 00:14:10;;;;;;;14.25;7.82;;;;;;;;;;5065158;28;20020;-63
2023/11/02 00:16:36;;;;;;;13.80;7.78;;;;;;;;;;5063835;28;20025;-64
2023/11/02 00:19:04;;;;;;;16.38;7.85;;;;;;;;;;5063970;28;20017;-62
2023/11/02 00:21:32;;;;;;;15.48;7.70;;;;;;;;;;5063118;28;20013;-64
2023/11/02 00:23:58;;;;;;;14.20;7.35;;;;;;;;;;5065096;28;20017;-63
2023/11/02 00:26:26;;;;;;;14.30;7.78;;;;;;;;;;5064192;28;20031;-64
2023/11/02 00:28:52;;;;;;;16.80;7.55;;;;;;;;;;5064017;28;20028;-62
2023/11/02 00:31:18;;;;;;;14.05;7.70;;;;;;;;;;5064222;28;20530;-62
2023/11/02 00:33:46;;;;;;;14.55;7.60;;;;;;;;;;5066230;28;20028;-64
2023/11/02 00:36:15;;;;;;;15.25;7.80;;;;;;;;;;5085012;28;20016;-62
2023/11/02 00:38:41;;;;;;;15.40;7.68;;;;;;;;;;5063858;28;20021;-64
2023/11/02 00:41:07;;;;;;;14.32;7.88;;;;;;;;;;5078615;28;20050;-65
2023/11/02 00:43:33;;;;;;;14.05;7.40;;;;;;;;;;5083824;28;20103;-63
2023/11/02 00:45:59;;;;;;;13.65;7.57;;;;;;;;;;5058500;28;20035;-63
2023/11/02 00:48:30;;;;;;;13.68;7.53;;;;;;;;;;5081714;28;20029;-65
2023/11/02 00:51:02;;;;;;;13.93;8.10;;;;;;;;;;5081887;28;20633;-64
2023/11/02 00:53:28;;;;;;;15.40;7.70;;;;;;;;;;5080874;28;20021;-63
2023/11/02 00:55:54;;;;;;;16.45;7.40;;;;;;;;;;5061567;28;20097;-64
2023/11/02 00:58:28;;;;;;;14.50;7.40;;;;;;;;;;5061685;28;20017;-65
2023/11/02 01:00:54;;;;;;;15.90;7.50;;;;;;;;;;5061537;28;20484;-64
2023/11/02 01:03:26;;;;;;;14.15;7.40;;;;;;;;;;5039515;28;20033;-63
2023/11/02 01:05:52;;;;;;;14.15;7.50;;;;;;;;;;5043349;28;20029;-60
2023/11/02 01:08:24;;;;;;;14.85;7.30;;;;;;;;;;5060899;28;20083;-62
2023/11/02 01:10:50;;;;;;;16.02;7.88;;;;;;;;;;5061313;28;20051;-63
2023/11/02 01:13:19;;;;;;;14.70;7.28;;;;;;;;;;5060969;28;20017;-62
2023/11/02 01:15:45;;;;;;;13.80;7.50;;;;;;;;;;5061653;28;20020;-63
2023/11/02 01:18:12;;;;;;;13.90;7.20;;;;;;;;;;5059087;28;20109;-64
2023/11/02 01:20:46;;;;;;;14.93;7.50;;;;;;;;;;5054476;28;20040;-65
2023/11/02 01:23:21;;;;;;;15.95;7.60;;;;;;;;;;5063203;28;20020;-63
2023/11/02 01:25:51;;;;;;;13.85;7.57;;;;;;;;;;5080666;28;20074;-63
2023/11/02 01:28:18;;;;;;;13.98;7.63;;;;;;;;;;5081194;28;20050;-64
2023/11/02 01:31:04;;;;;;;17.23;8.07;;;;;;;;;;5077461;28;20025;-65
2023/11/02 01:33:39;;;;;;;16.27;8.25;;;;;;;;;;5043001;28;20160;-61
2023/11/02 01:36:08;;;;;;;15.10;8.02;;;;;;;;;;5060545;28;20028;-63
2023/11/02 01:38:35;;;;;;;13.68;7.72;;;;;;;;;;5061010;28;20114;-65
2023/11/02 01:41:05;;;;;;;14.25;7.68;;;;;;;;;;5059978;28;20025;-63
2023/11/02 01:43:31;;;;;;;13.93;7.75;;;;;;;;;;5059992;28;20074;-64
2023/11/02 01:45:57;;;;;;;13.75;8.00;;;;;;;;;;5063448;28;20052;-64
2023/11/02 01:48:28;;;;;;;14.20;7.80;;;;;;;;;;5041070;28;20040;-60
2023/11/02 01:50:54;;;;;;;15.07;8.10;;;;;;;;;;5059473;28;20029;-62
2023/11/02 01:53:26;;;;;;;13.70;7.65;;;;;;;;;;5060052;28;20048;-65
2023/11/02 01:56:11;;;;;;;14.55;8.00;;;;;;;;;;5059704;28;20029;-64
2023/11/02 01:58:43;;;;;;;13.45;7.78;;;;;;;;;;5041370;28;20510;-62
2023/11/02 02:01:28;;;;;;;13.93;8.00;;;;;;;;;;5058883;28;20021;-63
2023/11/02 02:03:57;;;;;;;15.35;8.13;;;;;;;;;;5049409;28;20017;-62
2023/11/02 02:06:39;;;;;;;13.48;7.90;;;;;;;;;;5056078;28;20040;-63
2023/11/02 02:09:23;;;;;;;17.20;8.07;;;;;;;;;;5044156;28;20028;-63
2023/11/02 02:11:52;;;;;;;14.18;8.38;;;;;;;;;;5072266;28;20024;-63
2023/11/02 02:14:21;;;;;;;16.08;8.18;;;;;;;;;;5072395;28;20141;-60
2023/11/02 02:17:03;;;;;;;13.70;7.93;;;;;;;;;;5064899;28;20071;-63
2023/11/02 02:19:41;;;;;;;16.65;8.38;;;;;;;;;;5056175;28;20092;-61
2023/11/02 02:22:14;;;;;;;14.45;7.93;;;;;;;;;;5056881;28;20118;-62
2023/11/02 02:24:48;;;;;;;15.73;7.97;;;;;;;;;;5058053;28;20056;-63
2023/11/02 02:27:14;;;;;;;17.48;7.88;;;;;;;;;;5058621;28;20086;-62
2023/11/02 02:29:55;;;;;;;16.48;7.80;;;;;;;;;;5058296;28;20029;-63
2023/11/02 02:32:40;;;;;;;15.93;7.90;;;;;;;;;;5058968;28;20021;-63
2023/11/02 02:35:21;;;;;;;15.57;8.60;;;;;;;;;;5058753;28;20023;-65
2023/11/02 02:37:50;;;;;;;13.93;7.68;;;;;;;;;;5058442;28;20028;-62
2023/11/02 02:40:23;;;;;;;14.38;7.85;;;;;;;;;;5057711;28;20387;-62
2023/11/02 02:42:50;;;;;;;15.43;7.82;;;;;;;;;;5069441;28;20103;-62
2023/11/02 02:45:17;;;;;;;17.40;8.10;;;;;;;;;;5076815;28;20020;-60
2023/11/02 02:47:43;;;;;;;13.75;7.50;;;;;;;;;;5065462;28;20032;-62
2023/11/02 02:50:12;;;;;;;15.60;7.60;;;;;;;;;;5056096;28;20028;-62
2023/11/02 02:52:40;;;;;;;13.70;7.35;;;;;;;;;;5057550;28;20017;-63
2023/11/02 02:55:08;;;;;;;15.73;7.75;;;;;;;;;;5057612;28;20033;-62
2023/11/02 02:57:37;;;;;;;15.70;7.40;;;;;;;;;;5078027;28;20080;-63
2023/11/02 03:00:03;;;;;;;15.63;7.65;;;;;;;;;;5078083;28;20034;-64
2023/11/02 03:02:33;;;;;;;14.63;7.55;;;;;;;;;;5071093;28;20119;-62
2023/11/02 03:04:59;;;;;;;14.43;7.47;;;;;;;;;;5078780;28;20036;-64
2023/11/02 03:07:30;;;;;;;16.55;7.70;;;;;;;;;;5062026;28;20029;-64
2023/11/02 03:09:59;;;;;;;14.02;7.40;;;;;;;;;;5058013;28;20044;-61
2023/11/02 03:12:24;;;;;;;;;;;;;;;;;;5059510;28;20017;-63
2023/11/02 03:14:52;;;;;;;12.90;7.00;;;;;;;;;;5059793;28;19937;-63
2023/11/02 03:17:25;;;;;;;15.85;7.70;;;;;;;;;;5058811;28;20047;-63
2023/11/02 03:19:51;;;;;;;13.80;7.60;;;;;;;;;;5040918;28;20017;-64
2023/11/02 03:22:21;;;;;;;15.63;7.60;;;;;;;;;;5041047;28;20032;-62
2023/11/02 03:24:47;;;;;;;14.30;7.80;;;;;;;;;;5070678;28;20162;-64
2023/11/02 03:27:16;;;;;;;14.63;7.72;;;;;;;;;;5078642;28;20482;-65
2023/11/02 03:29:51;;;;;;;15.98;7.65;;;;;;;;;;5070219;28;20021;-63
2023/11/02 03:32:19;;;;;;;16.33;7.68;;;;;;;;;;5079329;28;20017;-64
2023/11/02 03:34:55;;;;;;;16.33;7.85;;;;;;;;;;5050140;28;20051;-64
2023/11/02 03:37:29;;;;;;;12.93;7.43;;;;;;;;;;5058414;28;20389;-63
2023/11/02 03:39:55;;;;;;;14.05;7.68;;;;;;;;;;5058622;28;20044;-63
2023/11/02 03:42:36;;;;;;;14.68;8.07;;;;;;;;;;5058699;28;20167;-65
2023/11/02 03:45:09;;;;;;;17.67;8.23;;;;;;;;;;5058044;28;20040;-64
2023/11/02 03:47:34;;;;;;;13.43;7.65;;;;;;;;;;5058549;28;20036;-64
2023/11/02 03:50:00;;;;;;;13.93;7.97;;;;;;;;;;5057588;28;20654;-63
2023/11/02 03:52:30;;;;;;;14.73;7.60;;;;;;;;;;5040235;28;20391;-63
2023/11/02 03:54:59;;;;;;;16.27;7.90;;;;;;;;;;5063500;28;20027;-63
2023/11/02 03:57:31;;;;;;;14.02;7.75;;;;;;;;;;5061383;28;20032;-63
2023/11/02 03:59:57;;;;;;;15.38;7.65;;;;;;;;;;5057939;28;20423;-62
2023/11/02 04:02:23;;;;;;;15.88;8.10;;;;;;;;;;5040946;28;20043;-63
2023/11/02 04:04:52;;;;;;;14.25;7.60;;;;;;;;;;5070418;28;20070;-63
2023/11/02 04:07:18;;;;;;;16.73;8.20;;;;;;;;;;5078327;28;20024;-62
2023/11/02 04:09:54;;;;;;;15.63;8.30;;;;;;;;;;5051342;28;20105;-63
2023/11/02 04:12:23;;;;;;;17.83;8.30;;;;;;;;;;5078008;28;20613;-62
2023/11/02 04:14:51;;;;;;;14.55;8.27;;;;;;;;;;5078435;28;20027;-62
2023/11/02 04:17:18;;;;;;;13.45;7.93;;;;;;;;;;5077847;28;20028;-63
2023/11/02 04:19:44;;;;;;;14.13;8.52;;;;;;;;;;5065786;28;20021;-63
2023/11/02 04:22:11;;;;;;;14.25;7.75;;;;;;;;;;5061064;28;20028;-62
2023/11/02 04:24:37;;;;;;;15.55;8.30;;;;;;;;;;5059696;28;20029;-62
2023/11/02 04:27:03;;;;;;;14.98;7.90;;;;;;;;;;5066586;28;20413;-61
2023/11/02 04:29:30;;;;;;;15.38;8.38;;;;;;;;;;5078848;28;20024;-60
2023/11/02 04:31:56;;;;;;;15.40;7.70;;;;;;;;;;5079185;28;20084;-61
2023/11/02 04:34:22;;;;;;;14.88;7.80;;;;;;;;;;5062443;28;20032;-60
2023/11/02 04:36:48;;;;;;;14.60;7.80;;;;;;;;;;5059689;28;20009;-61
2023/11/02 04:39:14;;;;;;;14.55;7.90;;;;;;;;;;5059532;28;20051;-62
2023/11/02 04:41:40;;;;;;;14.32;7.88;;;;;;;;;;5059126;28;20029;-62
2023/11/02 04:44:06;;;;;;;14.30;7.95;;;;;;;;;;5060088;28;20150;-59
2023/11/02 04:46:32;;;;;;;16.05;8.30;;;;;;;;;;5060822;28;20110;-63
2023/11/02 04:48:58;;;;;;;14.95;8.23;;;;;;;;;;5060709;28;20024;-64
2023/11/02 04:51:24;;;;;;;14.10;7.75;;;;;;;;;;5060358;28;20021;-65
2023/11/02 04:53:50;;;;;;;16.65;8.20;;;;;;;;;;5060020;28;20096;-64
2023/11/02 04:56:19;;;;;;;15.02;7.90;;;;;;;;;;5060456;28;20013;-64
2023/11/02 04:58:45;;;;;;;14.93;7.85;;;;;;;;;;5055927;28;20075;-64
2023/11/02 05:01:11;;;;;;;16.85;9.48;;;;;;;;;;5060896;28;20021;-64
2023/11/02 05:03:37;;;;;;;16.90;8.55;;;;;;;;;;5071668;28;20039;-62
2023/11/02 05:06:03;;;;;;;15.10;8.50;;;;;;;;;;5080451;28;20040;-62
2023/11/02 05:08:29;;;;;;;13.82;8.65;;;;;;;;;;5080800;28;20024;-64
2023/11/02 05:10:55;;;;;;;18.10;9.43;;;;;;;;;;5080572;28;20020;-60
2023/11/02 05:13:21;;;;;;;14.35;8.60;;;;;;;;;;5062494;28;20092;-66
2023/11/02 05:15:47;;;;;;;14.40;8.30;;;;;;;;;;5080157;28;20021;-63
2023/11/02 05:18:13;;;;;;;14.05;8.35;;;;;;;;;;5080104;28;20039;-63
2023/11/02 05:20:39;;;;;;;14.75;8.27;;;;;;;;;;5080221;28;20402;-63
2023/11/02 05:23:09;;;;;;;14.45;8.40;;;;;;;;;;5080269;28;20027;-64
2023/11/02 05:25:35;;;;;;;15.52;9.20;;;;;;;;;;5079794;28;20023;-63
2023/11/02 05:28:01;;;;;;;16.67;8.40;;;;;;;;;;5079564;28;20091;-63
2023/11/02 05:30:27;;;;;;;16.30;9.77;;;;;;;;;;5090070;22;20085;-52
2023/11/02 05:32:53;;;;;;;18.08;8.65;;;;;;;;;;5051499;28;20444;-55
2023/11/02 05:35:19;;;;;;;15.43;8.57;;;;;;;;;;5052234;28;20013;-55
2023/11/02 05:37:45;;;;;;;15.77;8.70;;;;;;;;;;5052002;28;20024;-58
2023/11/02 05:40:11;;;;;;;14.60;8.48;;;;;;;;;;5051665;28;20021;-57
2023/11/02 05:42:37;;;;;;;14.77;8.60;;;;;;;;;;5043637;28;20104;-56
2023/11/02 05:45:03;;;;;;;14.77;8.70;;;;;;;;;;5051729;28;20475;-54
2023/11/02 05:47:30;;;;;;;20.02;9.35;;;;;;;;;;5025847;28;20513;-54
2023/11/02 05:49:56;;;;;;;17.30;8.90;;;;;;;;;;5033473;28;20399;-55
2023/11/02 05:52:22;;;;;;;14.52;9.10;;;;;;;;;;5033715;28;20033;-53
2023/11/02 05:54:48;;;;;;;14.20;9.13;;;;;;;;;;5051718;28;20032;-50
2023/11/02 05:57:14;;;;;;;16.45;9.18;;;;;;;;;;5052218;28;20017;-52
2023/11/02 05:59:40;;;;;;;15.77;9.70;;;;;;;;;;5033486;28;20533;-50
2023/11/02 06:02:08;;;;;;;16.02;9.45;;;;;;;;;;5051795;28;20024;-54
2023/11/02 06:04:34;;;;;;;14.15;9.40;;;;;;;;;;5051323;28;20486;-52
2023/11/02 06:07:00;;;;;;;14.38;8.90;;;;;;;;;;5033375;28;20053;-52
2023/11/02 06:09:26;;;;;;;15.70;8.82;;;;;;;;;;5050717;28;20110;-55
2023/11/02 06:11:52;;;;;;;16.05;9.10;;;;;;;;;;5050860;28;20021;-53
2023/11/02 06:14:18;;;;;;;14.60;9.05;;;;;;;;;;5050978;28;20040;-53
2023/11/02 06:16:44;;;;;;;14.52;9.32;;;;;;;;;;5051082;28;20045;-55
2023/11/02 06:19:10;;;;;;;16.15;9.10;;;;;;;;;;5033476;28;20505;-53
2023/11/02 06:21:36;;;;;;;16.63;9.35;;;;;;;;;;5042462;28;20021;-55
2023/11/02 06:24:02;;;;;;;14.20;8.88;;;;;;;;;;5051148;28;20032;-53
2023/11/02 06:26:32;;;;;;;14.45;9.18;;;;;;;;;;5051615;28;20025;-52
2023/11/02 06:28:58;;;;;;;14.63;9.10;;;;;;;;;;5050791;28;20091;-53
2023/11/02 06:31:23;;;;;;;14.98;9.30;;;;;;;;;;5032624;28;20025;-52
2023/11/02 06:33:50;;;;;;;15.38;9.20;;;;;;;;;;5032956;28;20443;-54
2023/11/02 06:36:16;;;;;;;15.52;9.40;;;;;;;;;;5050605;28;20020;-54
2023/11/02 06:38:42;;;;;;;15.65;9.10;;;;;;;;;;5050570;28;20029;-54
2023/11/02 06:41:08;;;;;;;16.55;8.95;;;;;;;;;;5050259;28;20030;-54
2023/11/02 06:43:34;;;;;;;14.25;9.10;;;;;;;;;;5032665;28;20098;-57
2023/11/02 06:46:00;;;;;;;16.63;9.45;;;;;;;;;;5049884;28;20100;-53
2023/11/02 06:48:26;;;;;;;15.88;9.32;;;;;;;;;;5050058;28;20025;-55
2023/11/02 06:50:52;;;;;;;14.52;9.45;;;;;;;;;;5051013;28;20025;-52
2023/11/02 06:53:18;;;;;;;15.57;8.98;;;;;;;;;;5050441;28;20024;-56
2023/11/02 06:55:44;;;;;;;14.93;9.70;;;;;;;;;;5031981;28;20021;-54
2023/11/02 06:58:10;;;;;;;15.35;9.73;;;;;;;;;;5049889;28;20112;-51
2023/11/02 07:00:36;;;;;;;16.08;9.27;;;;;;;;;;5032190;28;20021;-57
2023/11/02 07:03:03;;;;;;;16.20;9.32;;;;;;;;;;5050045;28;20663;-53
2023/11/02 07:05:29;;;;;;;16.98;9.27;;;;;;;;;;5049627;28;20075;-53
2023/11/02 07:07:55;;;;;;;14.65;8.90;;;;;;;;;;5032324;28;20059;-58
2023/11/02 07:10:21;;;;;;;15.48;9.20;;;;;;;;;;5049453;28;20028;-51
2023/11/02 07:12:47;;;;;;;17.00;9.10;;;;;;;;;;5049779;28;20071;-54
2023/11/02 07:15:13;;;;;;;14.85;8.90;;;;;;;;;;5041156;28;20508;-54
2023/11/02 07:17:39;;;;;;;15.27;8.90;;;;;;;;;;5029860;28;20100;-56
2023/11/02 07:20:06;;;;;;;14.68;9.20;;;;;;;;;;5038844;28;20021;-55
2023/11/02 07:22:32;;;;;;;14.80;9.13;;;;;;;;;;5049987;28;20029;-52
2023/11/02 07:24:58;;;;;;;14.05;8.82;;;;;;;;;;5046818;28;20390;-53
2023/11/02 07:27:24;;;;;;;16.27;9.00;;;;;;;;;;5024160;28;20057;-57
2023/11/02 07:29:50;;;;;;;13.88;8.70;;;;;;;;;;5049857;28;20051;-53
2023/11/02 07:32:16;;;;;;;14.88;8.73;;;;;;;;;;5043572;28;20025;-55
2023/11/02 07:34:42;;;;;;;16.52;8.85;;;;;;;;;;5049051;28;20107;-55
2023/11/02 07:37:08;;;;;;;14.73;9.00;;;;;;;;;;5049452;28;20021;-55
2023/11/02 07:39:35;;;;;;;15.65;9.00;;;;;;;;;;5049515;28;20029;-56
2023/11/02 07:42:02;;;;;;;15.00;9.30;;;;;;;;;;5032546;28;20053;-53
2023/11/02 07:44:28;;;;;;;15.43;9.00;;;;;;;;;;5049998;28;20017;-56
2023/11/02 07:46:54;;;;;;;14.68;9.18;;;;;;;;;;5041338;28;20186;-56
2023/11/02 07:49:20;;;;;;;16.02;9.25;;;;;;;;;;5043048;28;20137;-56
2023/11/02 07:51:46;;;;;;;13.90;9.02;;;;;;;;;;5048800;28;20029;-52
2023/11/02 07:54:12;;;;;;;15.85;9.30;;;;;;;;;;5049068;28;20044;-57
2023/11/02 07:56:38;;;;;;;15.93;9.23;;;;;;;;;;5043649;28;20025;-50
2023/11/02 07:59:04;;;;;;;15.98;9.23;;;;;;;;;;5045363;28;20029;-57
2023/11/02 08:01:30;;;;;;;15.77;9.10;;;;;;;;;;5053071;28;20383;-52
2023/11/02 08:03:57;;;;;;;14.95;9.38;;;;;;;;;;5053163;28;20406;-52
2023/11/02 08:06:23;;;;;;;14.10;8.80;;;;;;;;;;5053659;28;20021;-53
2023/11/02 08:08:50;;;;;;;14.20;9.10;;;;;;;;;;5052910;28;20025;-53
2023/11/02 08:11:16;;;;;;;15.45;9.10;;;;;;;;;;5052945;28;20020;-54
2023/11/02 08:13:44;;;;;;;15.32;8.90;;;;;;;;;;5052921;28;20093;-56
2023/11/02 08:16:10;;;;;;;14.23;9.27;;;;;;;;;;5031166;28;20040;-52
2023/11/02 08:18:36;;;;;;;14.55;8.80;;;;;;;;;;5051198;28;20411;-56
2023/11/02 08:21:07;;;;;;;14.30;9.15;;;;;;;;;;5052361;28;20017;-53
2023/11/02 08:23:33;;;;;;;14.93;9.23;;;;;;;;;;5052860;28;20510;-55
2023/11/02 08:26:00;;;;;;;15.90;9.52;;;;;;;;;;5053141;28;20029;-53
2023/11/02 08:28:26;;;;;;;16.25;9.30;;;;;;;;;;5052763;28;20033;-52
2023/11/02 08:30:52;;;;;;;15.07;9.52;;;;;;;;;;5034340;28;20029;-49
2023/11/02 08:33:18;;;;;;;14.52;9.00;;;;;;;;;;5034977;28;20390;-53
2023/11/02 08:35:44;;;;;;;14.25;9.13;;;;;;;;;;5052611;28;20117;-51
2023/11/02 08:38:11;;;;;;;14.13;9.70;;;;;;;;;;5052534;28;20089;-56
2023/11/02 08:40:37;;;;;;;14.27;9.38;;;;;;;;;;5052215;28;20024;-53
2023/11/02 08:43:03;;;;;;;13.85;9.18;;;;;;;;;;5044368;28;20437;-54
2023/11/02 08:45:29;;;;;;;15.10;9.10;;;;;;;;;;5037323;28;20032;-52
2023/11/02 08:47:55;;;;;;;15.05;9.43;;;;;;;;;;5034617;28;20020;-53
2023/11/02 08:50:21;;;;;;;14.25;9.05;;;;;;;;;;5048901;28;20348;-54
2023/11/02 08:52:47;;;;;;;13.75;8.80;;;;;;;;;;5052480;28;20024;-51
2023/11/02 08:55:13;;;;;;;17.45;9.18;;;;;;;;;;5052243;28;20397;-54
2023/11/02 08:57:39;;;;;;;14.27;9.00;;;;;;;;;;5034439;28;20637;-53
2023/11/02 09:00:07;;;;;;;14.00;9.00;;;;;;;;;;5051948;28;20055;-54
2023/11/02 09:02:34;;;;;;;13.93;8.90;;;;;;;;;;5034541;28;20021;-48
2023/11/02 09:05:00;;;;;;;16.52;9.60;;;;;;;;;;5052039;28;20302;-55
2023/11/02 09:07:28;;;;;;;14.60;9.43;;;;;;;;;;5050944;28;20462;-56
2023/11/02 09:09:54;;;;;;;14.15;8.88;;;;;;;;;;5051837;28;20426;-54
2023/11/02 09:12:21;;;;;;;15.77;8.70;;;;;;;;;;5034474;28;20027;-58
2023/11/02 09:14:47;;;;;;;14.48;8.98;;;;;;;;;;5037831;28;20447;-54
2023/11/02 09:17:13;;;;;;;14.52;8.88;;;;;;;;;;5045691;28;20025;-50
2023/11/02 09:19:39;;;;;;;14.30;9.00;;;;;;;;;;5049820;28;20515;-54
2023/11/02 09:22:06;;;;;;;16.30;9.85;;;;;;;;;;5034360;28;20025;-55
2023/11/02 09:24:32;;;;;;;15.20;8.90;;;;;;;;;;5044506;28;20029;-53
2023/11/02 09:26:58;;;;;;;14.77;8.77;;;;;;;;;;5034652;28;20029;-53
2023/11/02 09:29:24;;;;;;;14.32;9.02;;;;;;;;;;5043245;28;20087;-55
2023/11/02 09:31:50;;;;;;;14.77;8.80;;;;;;;;;;5048700;28;20036;-55
2023/11/02 09:34:16;;;;;;;15.35;8.82;;;;;;;;;;5038092;28;20463;-53
2023/11/02 09:36:43;;;;;;;14.13;8.95;;;;;;;;;;5018952;28;20029;-55
2023/11/02 09:39:10;;;;;;;15.85;8.70;;;;;;;;;;5035436;28;20461;-56
2023/11/02 09:41:36;;;;;;;15.02;8.90;;;;;;;;;;5051172;28;20017;-51
2023/11/02 09:44:03;;;;;;;14.10;8.85;;;;;;;;;;5051332;28;20025;-56
2023/11/02 09:46:29;;;;;;;14.30;9.02;;;;;;;;;;5051024;28;20104;-54
2023/11/02 09:48:55;;;;;;;14.85;8.82;;;;;;;;;;5031149;28;20119;-52
2023/11/02 09:51:23;;;;;;;13.95;9.05;;;;;;;;;;5034208;28;20036;-57
2023/11/02 09:53:49;;;;;;;14.05;8.77;;;;;;;;;;5051490;28;20516;-54
2023/11/02 09:56:15;;;;;;;15.32;8.93;;;;;;;;;;5051502;28;20017;-53
2023/11/02 09:58:41;;;;;;;15.32;9.00;;;;;;;;;;5051397;28;20029;-54
2023/11/02 10:01:09;;;;;;;13.88;8.85;;;;;;;;;;5044880;28;20537;-56
2023/11/02 10:03:35;;;;;;;14.85;9.18;;;;;;;;;;5031811;28;20021;-56
2023/11/02 10:06:03;;;;;;;14.48;9.00;;;;;;;;;;5051855;28;20028;-54
2023/11/02 10:08:29;;;;;;;15.70;9.32;;;;;;;;;;5033689;28;20025;-52
2023/11/02 10:11:14;;;;;;;13.90;9.00;;;;;;;;;;5051373;28;20021;-57
2023/11/02 10:13:40;;;;;;;14.02;8.93;;;;;;;;;;5051687;28;20025;-58
2023/11/02 10:16:07;;;;;;;14.68;9.05;;;;;;;;;;5051589;28;20021;-53
2023/11/02 10:18:33;;;;;;;14.32;9.10;;;;;;;;;;5022086;28;20052;-56
2023/11/02 10:20:59;;;;;;;16.13;8.88;;;;;;;;;;5031302;28;20033;-48
2023/11/02 10:23:25;;;;;;;13.90;8.82;;;;;;;;;;5031485;28;20037;-55
2023/11/02 10:25:51;;;;;;;15.63;9.10;;;;;;;;;;5031324;28;20472;-56
2023/11/02 10:28:17;;;;;;;15.80;9.52;;;;;;;;;;5031184;28;20029;-53
2023/11/02 10:30:44;;;;;;;14.93;9.38;;;;;;;;;;5013217;28;20072;-54
2023/11/02 10:33:10;;;;;;;15.35;9.07;;;;;;;;;;5013528;28;20067;-53
2023/11/02 10:35:41;;;;;;;17.73;9.13;;;;;;;;;;5030957;28;20056;-56
2023/11/02 10:38:11;;;;;;;17.60;9.75;;;;;;;;;;5030379;28;20017;-56
2023/11/02 10:40:41;;;;;;;15.10;9.15;;;;;;;;;;5030010;28;20021;-54
2023/11/02 10:43:09;;;;;;;13.98;9.02;;;;;;;;;;5031138;28;20048;-58
2023/11/02 10:45:36;;;;;;;15.07;9.32;;;;;;;;;;5030836;28;20022;-56
2023/11/02 10:48:03;;;;;;;14.40;9.20;;;;;;;;;;5030807;28;20045;-52
2023/11/02 10:50:30;;;;;;;13.98;8.65;;;;;;;;;;5030401;28;20245;-53
2023/11/02 10:52:57;;;;;;;14.23;9.35;;;;;;;;;;5031656;28;20025;-51
2023/11/02 10:55:28;;;;;;;14.07;8.95;;;;;;;;;;5030720;28;20041;-53
2023/11/02 10:57:54;;;;;;;15.43;9.00;;;;;;;;;;5030695;28;20501;-50
2023/11/02 11:00:24;;;;;;;16.33;9.00;;;;;;;;;;5030299;28;20029;-53
2023/11/02 11:02:51;;;;;;;15.48;9.10;;;;;;;;;;5030538;28;20361;-53
2023/11/02 11:05:20;;;;;;;16.02;9.00;;;;;;;;;;5030656;28;20025;-52
2023/11/02 11:07:51;;;;;;;14.10;9.10;;;;;;;;;;5031236;28;20025;-50
2023/11/02 11:10:18;;;;;;;15.35;8.80;;;;;;;;;;5030735;28;20510;-56
2023/11/02 11:12:45;;;;;;;15.05;9.70;;;;;;;;;;5012554;28;20025;-51
2023/11/02 11:15:13;;;;;;;14.75;9.43;;;;;;;;;;5012967;28;20021;-54
2023/11/02 11:17:47;;;;;;;14.67;9.60;;;;;;;;;;5012673;28;20263;-52
2023/11/02 11:20:16;;;;;;;16.15;9.23;;;;;;;;;;5030478;28;20036;-53
2023/11/02 11:22:42;;;;;;;;;;;;;;;;;;5030981;28;20502;-50
2023/11/02 11:25:09;;;;;;;14.35;9.45;;;;;;;;;;5012743;28;19905;-54
2023/11/02 11:27:35;;;;;;;14.45;9.38;;;;;;;;;;5030329;28;20123;-55
2023/11/02 11:30:04;;;;;;;15.52;9.70;;;;;;;;;;5045497;22;20036;-54
2023/11/02 11:32:39;;;;;;;17.25;9.43;;;;;;;;;;5066931;28;20115;-58
2023/11/02 11:35:05;;;;;;;16.70;9.93;;;;;;;;;;5066903;28;20078;-58
2023/11/02 11:40:23;;;;;;;14.07;9.38;;;;;;;;;;5063338;28;20055;-57
2023/11/02 11:43:01;;;;;;;14.90;9.25;;;;;;;;;;5039879;28;20125;-56
2023/11/02 11:45:46;;;;;;;14.13;9.30;;;;;;;;;;5029869;28;20082;-56
2023/11/02 11:48:12;;;;;;;15.60;9.40;;;;;;;;;;5047662;28;20393;-52
2023/11/02 11:50:43;;;;;;;15.77;9.13;;;;;;;;;;5047430;28;20033;-58
2023/11/02 11:53:18;;;;;;;15.45;9.13;;;;;;;;;;5029594;28;20463;-59
2023/11/02 11:55:45;;;;;;;14.38;9.30;;;;;;;;;;5043952;28;20105;-56
2023/11/02 11:58:11;;;;;;;14.45;9.30;;;;;;;;;;5043835;28;20040;-54
2023/11/02 12:00:53;;;;;;;16.33;9.30;;;;;;;;;;5047331;28;20383;-56
2023/11/02 12:03:34;;;;;;;14.00;9.20;;;;;;;;;;4705457;28;10000036;-61
2023/11/02 12:06:04;;;;;;;17.15;9.30;;;;;;;;;;5056663;28;20056;-56
2023/11/02 12:08:31;;;;;;;15.45;9.80;;;;;;;;;;5052372;28;20098;-58
2023/11/02 12:10:58;;;;;;;15.48;9.38;;;;;;;;;;5065133;28;20086;-59
2023/11/02 12:13:29;;;;;;;14.63;9.70;;;;;;;;;;5052730;28;20024;-60
2023/11/02 12:15:58;;;;;;;15.10;10.20;;;;;;;;;;5044956;28;20123;-57
2023/11/02 12:18:36;;;;;;;15.32;10.45;;;;;;;;;;5036609;28;20028;-59
2023/11/02 12:21:04;;;;;;;14.75;10.48;;;;;;;;;;5059736;28;20044;-60
2023/11/02 12:23:37;;;;;;;17.63;10.82;;;;;;;;;;5044735;28;20013;-58
2023/11/02 12:26:04;;;;;;;15.43;10.15;;;;;;;;;;5044869;28;20087;-56
2023/11/02 12:28:39;;;;;;;18.13;10.18;;;;;;;;;;5025828;28;20017;-58
2023/11/02 12:31:05;;;;;;;16.35;10.25;;;;;;;;;;5045581;28;20087;-54
2023/11/02 12:33:32;;;;;;;15.73;10.13;;;;;;;;;;5047256;28;20390;-54
2023/11/02 12:35:59;;;;;;;16.02;10.90;;;;;;;;;;5047187;28;20037;-56
2023/11/02 12:38:34;;;;;;;15.15;9.95;;;;;;;;;;5055075;28;20078;-57
2023/11/02 12:41:02;;;;;;;15.05;9.88;;;;;;;;;;5044044;28;20445;-57
2023/11/02 12:43:28;;;;;;;16.30;10.57;;;;;;;;;;5060386;28;20036;-58
2023/11/02 12:46:06;;;;;;;17.13;10.52;;;;;;;;;;5071047;28;20697;-54
2023/11/02 12:48:33;;;;;;;16.52;10.73;;;;;;;;;;5070823;28;20040;-57
2023/11/02 12:51:13;;;;;;;15.25;10.25;;;;;;;;;;5070834;28;20035;-56
2023/11/02 12:53:39;;;;;;;15.10;10.43;;;;;;;;;;5070855;28;20432;-55
2023/11/02 12:56:06;;;;;;;16.05;10.50;;;;;;;;;;5062481;28;20491;-57
2023/11/02 12:58:32;;;;;;;18.35;10.20;;;;;;;;;;5053310;28;20446;-56
2023/11/02 13:00:59;;;;;;;17.42;10.55;;;;;;;;;;5050536;28;20013;-58
2023/11/02 13:03:26;;;;;;;15.27;10.40;;;;;;;;;;5050873;28;20071;-56
2023/11/02 13:05:52;;;;;;;14.90;10.32;;;;;;;;;;5050917;28;20108;-56
2023/11/02 13:08:27;;;;;;;14.70;10.30;;;;;;;;;;5050695;28;20056;-54
2023/11/02 13:10:53;;;;;;;15.25;10.73;;;;;;;;;;5050530;28;20363;-59
2023/11/02 13:13:19;;;;;;;15.13;10.30;;;;;;;;;;5064392;28;20475;-58
2023/11/02 13:15:47;;;;;;;14.60;10.40;;;;;;;;;;5070295;28;20065;-56
2023/11/02 13:18:13;;;;;;;15.30;10.80;;;;;;;;;;5052649;28;20020;-54
2023/11/02 13:20:39;;;;;;;14.98;10.80;;;;;;;;;;5051293;28;20033;-59
2023/11/02 13:23:08;;;;;;;14.80;10.30;;;;;;;;;;5050353;28;20142;-56
2023/11/02 13:25:34;;;;;;;14.75;10.18;;;;;;;;;;5050163;28;20021;-57
2023/11/02 13:28:05;;;;;;;15.35;10.10;;;;;;;;;;5049903;28;20053;-51
2023/11/02 13:30:31;;;;;;;15.85;10.10;;;;;;;;;;5067082;28;20033;-57
2023/11/02 13:32:57;;;;;;;17.50;10.13;;;;;;;;;;5052234;28;20016;-57
2023/11/02 13:35:24;;;;;;;16.30;10.10;;;;;;;;;;5051879;28;20021;-56
2023/11/02 13:37:50;;;;;;;16.25;10.70;;;;;;;;;;5070091;28;20098;-56
2023/11/02 13:40:20;;;;;;;16.20;10.48;;;;;;;;;;5062439;28;20093;-58
2023/11/02 13:42:48;;;;;;;15.25;10.50;;;;;;;;;;5049578;28;20013;-59
2023/11/02 13:45:14;;;;;;;16.02;11.05;;;;;;;;;;5031902;28;20075;-56
2023/11/02 13:47:40;;;;;;;15.27;11.35;;;;;;;;;;5049602;28;20033;-56
2023/11/02 13:50:07;;;;;;;16.63;10.60;;;;;;;;;;5049911;28;20063;-56
2023/11/02 13:52:34;;;;;;;16.60;10.48;;;;;;;;;;5050338;28;20017;-57
2023/11/02 13:55:03;;;;;;;16.77;10.18;;;;;;;;;;5049314;28;20021;-54
2023/11/02 13:57:29;;;;;;;16.63;11.18;;;;;;;;;;5049882;28;20082;-57
2023/11/02 13:59:56;;;;;;;17.27;10.77;;;;;;;;;;5049087;28;20025;-53
2023/11/02 14:02:22;;;;;;;17.80;10.63;;;;;;;;;;5031188;28;20025;-56
2023/11/02 14:04:48;;;;;;;18.13;10.57;;;;;;;;;;5049191;28;20064;-57
2023/11/02 14:07:16;;;;;;;18.90;10.75;;;;;;;;;;5031634;28;20095;-58
2023/11/02 14:09:43;;;;;;;16.77;11.05;;;;;;;;;;5049103;28;20112;-55
2023/11/02 14:12:10;;;;;;;17.70;10.65;;;;;;;;;;5053554;28;20020;-57
2023/11/02 14:14:36;;;;;;;16.80;10.60;;;;;;;;;;5047407;28;20108;-57
2023/11/02 14:17:04;;;;;;;15.70;10.57;;;;;;;;;;5042967;28;20025;-60
2023/11/02 14:19:30;;;;;;;15.68;10.40;;;;;;;;;;5048713;28;20355;-59
2023/11/02 14:21:57;;;;;;;18.75;11.10;;;;;;;;;;5031090;28;20168;-53
2023/11/02 14:24:23;;;;;;;19.40;11.27;;;;;;;;;;5049069;28;20104;-58
2023/11/02 14:26:49;;;;;;;16.95;11.40;;;;;;;;;;5060797;28;20108;-59
2023/11/02 14:29:16;;;;;;;17.63;11.05;;;;;;;;;;5068629;28;20024;-55
2023/11/02 14:31:42;;;;;;;15.60;10.77;;;;;;;;;;5068239;28;20072;-58
2023/11/02 14:34:09;;;;;;;20.27;11.25;;;;;;;;;;5056444;28;20150;-55
2023/11/02 14:36:35;;;;;;;17.05;11.35;;;;;;;;;;4351244;28;10001297;-56